Time;durP1;ratioP1;P1;durP2;ratioP2;P2;SDS_P1;SDS_P2;PMS_P1;PMS_P2;Temp;Humidity;BMP_temperature;BMP_pressure;BME280_temperature;BME280_humidity;BME280_pressure;Samples;Min_cycle;Max_cycle;Signal;HPM_P1;HPM_P2
2024/01/25 00:01:25;;;;;;;12.02;4.55;;;12.70;86.80;;;;;;4977052;28;20137;-69
2024/01/25 00:03:51;;;;;;;15.38;4.53;;;12.70;86.90;;;;;;4990244;28;20636;-70
2024/01/25 00:06:17;;;;;;;13.98;4.78;;;12.70;86.90;;;;;;5012177;28;20042;-69
2024/01/25 00:08:42;;;;;;;14.88;4.38;;;12.70;86.90;;;;;;4994546;28;20040;-69
2024/01/25 00:11:09;;;;;;;13.55;4.40;;;12.70;86.90;;;;;;5007764;28;20037;-70
2024/01/25 00:13:35;;;;;;;14.60;5.10;;;12.70;86.90;;;;;;5011955;28;20042;-69
2024/01/25 00:16:00;;;;;;;14.40;5.13;;;12.70;86.80;;;;;;4995831;28;20045;-69
2024/01/25 00:18:26;;;;;;;15.77;4.70;;;12.70;87.60;;;;;;4994366;28;20089;-69
2024/01/25 00:20:52;;;;;;;15.80;5.03;;;12.70;86.80;;;;;;4994702;28;20042;-70
2024/01/25 00:23:18;;;;;;;13.07;4.20;;;12.70;86.80;;;;;;4996229;28;20046;-69
2024/01/25 00:25:44;;;;;;;17.98;5.18;;;12.70;86.80;;;;;;4994222;28;20062;-70
2024/01/25 00:28:10;;;;;;;16.92;4.70;;;12.70;86.80;;;;;;4996269;28;20049;-70
2024/01/25 00:30:35;;;;;;;13.70;4.30;;;12.70;86.80;;;;;;4978923;28;20042;-69
2024/01/25 00:33:01;;;;;;;13.45;4.32;;;12.70;86.80;;;;;;5011412;28;20138;-70
2024/01/25 00:35:27;;;;;;;15.43;5.18;;;12.70;86.80;;;;;;4995027;28;20046;-69
2024/01/25 00:37:53;;;;;;;14.45;4.22;;;12.70;86.80;;;;;;4993701;28;20417;-69
2024/01/25 00:40:19;;;;;;;14.45;5.32;;;12.70;87.00;;;;;;4994498;28;20100;-69
2024/01/25 00:42:52;;;;;;;16.75;5.25;;;12.70;86.70;;;;;;4979921;28;20046;-69
2024/01/25 00:45:21;;;;;;;11.98;4.65;;;12.70;86.70;;;;;;5018512;28;20128;-69
2024/01/25 00:47:47;;;;;;;15.60;4.43;;;12.70;86.70;;;;;;5017892;28;20084;-70
2024/01/25 00:50:13;;;;;;;13.30;4.43;;;12.70;86.70;;;;;;4993246;28;20072;-70
2024/01/25 00:52:39;;;;;;;12.52;4.18;;;12.70;86.70;;;;;;4978779;28;20409;-70
2024/01/25 00:55:05;;;;;;;13.30;3.85;;;12.70;86.70;;;;;;4994437;28;20041;-70
2024/01/25 00:57:31;;;;;;;14.40;4.43;;;12.60;86.70;;;;;;5007606;28;20289;-70
2024/01/25 00:59:58;;;;;;;14.73;4.47;;;12.60;86.70;;;;;;4965177;28;20042;-70
2024/01/25 01:02:23;;;;;;;15.70;4.80;;;12.70;86.80;;;;;;4977970;28;20046;-70
2024/01/25 01:04:49;;;;;;;16.05;4.80;;;12.60;86.70;;;;;;4995143;28;20045;-69
2024/01/25 01:07:15;;;;;;;14.35;5.70;;;12.60;86.70;;;;;;4996622;28;20045;-69
2024/01/25 01:09:41;;;;;;;14.98;4.55;;;12.60;86.70;;;;;;5008327;28;20077;-70
2024/01/25 01:12:07;;;;;;;13.13;4.55;;;12.60;86.70;;;;;;4994125;28;20116;-69
2024/01/25 01:14:33;;;;;;;15.73;4.68;;;12.60;86.70;;;;;;4990467;28;20034;-70
2024/01/25 01:16:58;;;;;;;15.50;4.95;;;12.60;86.70;;;;;;4993484;28;20042;-70
2024/01/25 01:19:24;;;;;;;14.88;5.03;;;12.60;86.70;;;;;;4993847;28;20038;-69
2024/01/25 01:21:49;;;;;;;15.32;5.05;;;12.60;86.70;;;;;;4991228;28;20391;-69
2024/01/25 01:24:15;;;;;;;10.43;4.03;;;12.60;86.70;;;;;;5018051;28;20153;-70
2024/01/25 01:26:44;;;;;;;13.23;4.15;;;12.60;86.70;;;;;;4993011;28;20128;-69
2024/01/25 01:29:09;;;;;;;14.32;4.57;;;12.60;86.80;;;;;;4995059;28;20034;-70
2024/01/25 01:31:35;;;;;;;17.73;4.90;;;12.60;86.80;;;;;;4994447;28;20040;-69
2024/01/25 01:34:01;;;;;;;14.23;4.72;;;12.60;86.70;;;;;;5010785;28;20389;-69
2024/01/25 01:36:26;;;;;;;12.30;4.30;;;12.60;86.80;;;;;;4991940;28;20498;-70
2024/01/25 01:38:52;;;;;;;17.95;4.63;;;12.60;87.50;;;;;;4977587;28;20575;-69
2024/01/25 01:41:18;;;;;;;16.63;5.38;;;12.60;86.80;;;;;;4993807;28;20113;-69
2024/01/25 01:43:43;;;;;;;16.20;4.82;;;12.60;86.80;;;;;;4981881;28;20084;-69
2024/01/25 01:46:39;;;;;;;11.10;4.45;;;12.60;86.80;;;;;;5008807;28;20073;-69
2024/01/25 01:49:08;;;;;;;13.82;4.50;;;12.60;86.80;;;;;;4984207;28;20049;-69
2024/01/25 01:51:34;;;;;;;14.48;4.55;;;12.60;86.80;;;;;;4993061;28;20052;-69
2024/01/25 01:54:03;;;;;;;15.50;4.40;;;12.60;86.80;;;;;;5006637;28;20397;-69
2024/01/25 01:56:29;;;;;;;17.20;5.80;;;12.60;86.80;;;;;;4993394;28;20038;-69
2024/01/25 01:59:01;;;;;;;16.52;5.85;;;12.60;86.80;;;;;;4992150;28;20038;-69
2024/01/25 02:01:27;;;;;;;12.68;5.05;;;12.60;86.70;;;;;;4976363;28;20034;-69
2024/01/25 02:03:53;;;;;;;17.17;5.32;;;12.60;86.70;;;;;;4993656;28;20042;-69
2024/01/25 02:06:19;;;;;;;14.80;4.40;;;12.60;86.80;;;;;;4993032;28;20041;-69
2024/01/25 02:08:46;;;;;;;13.48;5.03;;;12.60;86.80;;;;;;4992110;28;20425;-69
2024/01/25 02:11:12;;;;;;;18.33;4.63;;;12.60;86.80;;;;;;4992649;28;20100;-69
2024/01/25 02:13:38;;;;;;;20.02;5.25;;;12.60;86.80;;;;;;4993102;28;20521;-70
2024/01/25 02:16:04;;;;;;;13.85;4.90;;;12.60;86.80;;;;;;4993584;28;20034;-69
2024/01/25 02:18:30;;;;;;;17.88;5.25;;;12.60;86.80;;;;;;4977481;28;20529;-69
2024/01/25 02:20:56;;;;;;;13.82;5.72;;;12.60;86.80;;;;;;4956803;28;20062;-69
2024/01/25 02:23:21;;;;;;;14.40;4.72;;;12.60;86.80;;;;;;4970638;28;20287;-69
2024/01/25 02:25:47;;;;;;;17.40;6.00;;;12.60;86.70;;;;;;5008923;28;20042;-69
2024/01/25 02:28:12;;;;;;;16.98;5.03;;;12.50;86.70;;;;;;4992820;28;20037;-69
2024/01/25 02:30:38;;;;;;;15.93;4.85;;;12.60;86.70;;;;;;4974776;28;20126;-69
2024/01/25 02:33:04;;;;;;;18.55;5.47;;;12.60;86.70;;;;;;4987553;28;20049;-69
2024/01/25 02:35:29;;;;;;;13.40;4.80;;;12.50;86.60;;;;;;4958360;28;20116;-70
2024/01/25 02:37:55;;;;;;;17.98;5.22;;;12.50;86.70;;;;;;4991633;28;20038;-70
2024/01/25 02:40:20;;;;;;;15.02;4.95;;;12.50;86.60;;;;;;4992010;28;20030;-69
2024/01/25 02:42:46;;;;;;;14.68;5.10;;;12.50;86.60;;;;;;5009929;28;20060;-69
2024/01/25 02:45:12;;;;;;;16.73;5.40;;;12.50;86.60;;;;;;4992481;28;20049;-69
2024/01/25 02:47:37;;;;;;;16.08;5.43;;;12.50;86.60;;;;;;4992638;28;20042;-69
2024/01/25 02:50:03;;;;;;;15.15;5.05;;;12.50;86.60;;;;;;4992709;28;20037;-69
2024/01/25 02:52:29;;;;;;;15.48;5.35;;;12.50;86.60;;;;;;4993423;28;20073;-69
2024/01/25 02:54:54;;;;;;;18.42;4.75;;;12.50;86.60;;;;;;4990959;28;20410;-69
2024/01/25 02:57:20;;;;;;;17.67;5.03;;;12.50;86.70;;;;;;4976672;28;20034;-70
2024/01/25 02:59:47;;;;;;;18.98;4.82;;;12.50;86.70;;;;;;4990056;28;20042;-69
2024/01/25 03:02:12;;;;;;;16.65;5.70;;;12.50;86.60;;;;;;4989687;28;20568;-70
2024/01/25 03:04:38;;;;;;;18.33;5.78;;;12.50;86.60;;;;;;4991082;28;20046;-70
2024/01/25 03:07:04;;;;;;;14.95;5.32;;;12.50;86.60;;;;;;4993085;28;20045;-70
2024/01/25 03:09:29;;;;;;;15.90;5.00;;;12.50;86.70;;;;;;4992675;28;20405;-69
2024/01/25 03:11:55;;;;;;;15.60;4.88;;;12.50;86.60;;;;;;5009522;28;20080;-69
2024/01/25 03:14:20;;;;;;;15.30;4.43;;;12.50;86.60;;;;;;4993104;28;20040;-69
2024/01/25 03:16:46;;;;;;;13.90;4.75;;;12.50;86.60;;;;;;4992483;28;20041;-69
2024/01/25 03:19:12;;;;;;;13.23;4.38;;;12.50;86.60;;;;;;4991819;28;20065;-70
2024/01/25 03:21:37;;;;;;;15.77;5.05;;;12.50;86.60;;;;;;4994827;28;20160;-70
2024/01/25 03:24:03;;;;;;;16.92;5.38;;;12.50;86.70;;;;;;4996863;28;20053;-70
2024/01/25 03:26:29;;;;;;;19.75;5.88;;;12.50;86.70;;;;;;4995126;28;20038;-70
2024/01/25 03:28:54;;;;;;;18.20;5.13;;;12.50;86.60;;;;;;4997241;28;20135;-69
2024/01/25 03:31:20;;;;;;;13.43;4.03;;;12.40;86.50;;;;;;4993453;28;20578;-69
2024/01/25 03:33:46;;;;;;;18.38;5.50;;;12.50;86.60;;;;;;4977307;28;20124;-70
2024/01/25 03:36:14;;;;;;;16.60;5.18;;;12.40;86.60;;;;;;4994436;28;20044;-70
2024/01/25 03:38:39;;;;;;;21.75;5.15;;;12.50;86.60;;;;;;5020840;28;20096;-69
2024/01/25 03:41:05;;;;;;;21.85;5.80;;;12.50;86.70;;;;;;5012299;28;20505;-70
2024/01/25 03:43:30;;;;;;;14.95;5.22;;;12.40;86.50;;;;;;4996299;28;20040;-69
2024/01/25 03:45:56;;;;;;;17.83;5.65;;;12.40;86.60;;;;;;4996826;28;20048;-70
2024/01/25 03:48:22;;;;;;;17.25;5.53;;;12.40;86.60;;;;;;5011222;28;20104;-70
2024/01/25 03:50:47;;;;;;;16.52;5.13;;;12.40;86.60;;;;;;4995938;28;20041;-70
2024/01/25 03:53:13;;;;;;;18.60;6.30;;;12.40;86.50;;;;;;4979145;28;20092;-70
2024/01/25 03:55:39;;;;;;;13.90;4.43;;;12.40;86.50;;;;;;5012551;28;20041;-70
2024/01/25 03:58:04;;;;;;;13.93;4.38;;;12.40;86.50;;;;;;4993771;28;20394;-69
2024/01/25 04:00:30;;;;;;;13.75;4.05;;;12.40;86.50;;;;;;4979157;28;20069;-69
2024/01/25 04:02:55;;;;;;;14.57;5.53;;;12.40;86.50;;;;;;5012102;28;20041;-70
2024/01/25 04:05:21;;;;;;;15.48;5.00;;;12.40;86.50;;;;;;4996091;28;20042;-70
2024/01/25 04:07:47;;;;;;;17.10;5.60;;;12.40;86.50;;;;;;4993672;28;20038;-69
2024/01/25 04:10:12;;;;;;;14.63;4.93;;;12.40;86.50;;;;;;4995769;28;20041;-70
2024/01/25 04:12:39;;;;;;;17.70;5.75;;;12.40;86.50;;;;;;4996337;28;20413;-70
2024/01/25 04:15:05;;;;;;;19.75;5.85;;;12.40;86.50;;;;;;4995891;28;20045;-70
2024/01/25 04:17:31;;;;;;;13.38;4.90;;;12.40;86.40;;;;;;4985048;28;20046;-69
2024/01/25 04:19:56;;;;;;;11.75;4.57;;;12.40;86.50;;;;;;5006904;28;20417;-70
2024/01/25 04:22:22;;;;;;;19.02;5.80;;;12.40;86.50;;;;;;4995517;28;20085;-69
2024/01/25 04:24:49;;;;;;;15.88;5.63;;;12.40;86.50;;;;;;4978119;28;20095;-70
2024/01/25 04:27:15;;;;;;;19.37;5.30;;;12.40;86.60;;;;;;4993680;28;20057;-70
2024/01/25 04:29:44;;;;;;;18.40;5.30;;;12.30;86.50;;;;;;4993768;28;20046;-70
2024/01/25 04:32:09;;;;;;;11.27;4.65;;;12.30;86.50;;;;;;5011413;28;20073;-70
2024/01/25 04:34:35;;;;;;;15.55;3.72;;;12.30;86.50;;;;;;4993538;28;20596;-69
2024/01/25 04:37:01;;;;;;;17.40;5.03;;;12.30;86.50;;;;;;4993960;28;20095;-69
2024/01/25 04:39:27;;;;;;;14.38;4.50;;;12.30;86.60;;;;;;4994599;28;20050;-70
2024/01/25 04:41:52;;;;;;;15.57;5.38;;;12.30;86.50;;;;;;4989093;28;20486;-70
2024/01/25 04:44:18;;;;;;;16.83;5.07;;;12.30;86.40;;;;;;5011368;28;20038;-70
2024/01/25 04:46:43;;;;;;;18.52;5.57;;;12.30;86.40;;;;;;4978546;28;20653;-69
2024/01/25 04:49:09;;;;;;;19.30;6.13;;;12.30;86.40;;;;;;5009184;28;20053;-70
2024/01/25 04:51:35;;;;;;;13.65;4.80;;;12.30;86.40;;;;;;4993266;28;20172;-70
2024/01/25 04:54:00;;;;;;;16.85;5.47;;;12.30;86.50;;;;;;4995206;28;20093;-69
2024/01/25 04:56:26;;;;;;;16.38;4.63;;;12.30;86.50;;;;;;4994624;28;20038;-70
2024/01/25 04:58:52;;;;;;;17.88;5.22;;;12.20;86.40;;;;;;4995602;28;20467;-69
2024/01/25 05:01:17;;;;;;;14.77;5.18;;;12.20;86.40;;;;;;4993351;28;20042;-70
2024/01/25 05:03:43;;;;;;;17.05;5.25;;;12.20;86.40;;;;;;5010742;28;20038;-70
2024/01/25 05:06:08;;;;;;;18.27;4.63;;;12.20;86.40;;;;;;4994453;28;20444;-70
2024/01/25 05:08:34;;;;;;;20.05;5.43;;;12.20;86.30;;;;;;4995234;28;20073;-70
2024/01/25 05:11:00;;;;;;;22.23;6.03;;;12.20;86.40;;;;;;5010572;28;20044;-69
2024/01/25 05:13:25;;;;;;;21.58;6.10;;;12.20;86.30;;;;;;5009648;28;20029;-70
2024/01/25 05:15:51;;;;;;;18.08;5.53;;;12.20;86.30;;;;;;4993982;28;20064;-70
2024/01/25 05:18:17;;;;;;;19.13;5.70;;;12.20;86.30;;;;;;4995640;28;20037;-70
2024/01/25 05:20:42;;;;;;;17.13;4.95;;;12.20;86.30;;;;;;4993640;28;20460;-69
2024/01/25 05:23:08;;;;;;;18.13;5.45;;;12.20;86.30;;;;;;4993425;28;20050;-69
2024/01/25 05:25:34;;;;;;;16.92;5.53;;;12.20;86.30;;;;;;4993141;28;20062;-69
2024/01/25 05:27:59;;;;;;;14.65;3.58;;;12.20;86.30;;;;;;5010227;28;20042;-70
2024/01/25 05:30:25;;;;;;;18.58;5.68;;;12.20;86.30;;;;;;4993626;28;20029;-69
2024/01/25 05:32:52;;;;;;;16.00;4.55;;;12.20;86.40;;;;;;4994885;28;20092;-70
2024/01/25 05:35:18;;;;;;;16.97;5.60;;;12.20;86.40;;;;;;4977799;28;20034;-69
2024/01/25 05:37:43;;;;;;;13.98;4.65;;;12.20;86.30;;;;;;4992178;28;20100;-69
2024/01/25 05:40:09;;;;;;;14.57;5.47;;;12.10;86.30;;;;;;4990505;28;20069;-70
2024/01/25 05:42:35;;;;;;;15.30;5.53;;;12.10;86.30;;;;;;4994695;28;20044;-70
2024/01/25 05:45:03;;;;;;;15.38;4.95;;;12.10;86.30;;;;;;4975861;28;20150;-70
2024/01/25 05:47:29;;;;;;;13.63;4.38;;;12.10;86.40;;;;;;5008223;28;20417;-70
2024/01/25 05:49:55;;;;;;;17.95;6.10;;;12.10;86.30;;;;;;4975743;28;20049;-70
2024/01/25 05:52:21;;;;;;;14.45;4.60;;;12.10;86.40;;;;;;4993866;28;20521;-69
2024/01/25 05:54:47;;;;;;;17.77;5.22;;;12.10;86.30;;;;;;4991258;28;20096;-70
2024/01/25 05:57:13;;;;;;;19.50;4.72;;;12.10;86.40;;;;;;4977340;28;20049;-70
2024/01/25 05:59:38;;;;;;;18.27;6.68;;;12.10;86.30;;;;;;4994022;28;20034;-69
2024/01/25 06:02:05;;;;;;;18.70;5.60;;;12.10;86.40;;;;;;4991134;28;20038;-69
2024/01/25 06:04:31;;;;;;;19.80;5.45;;;12.10;86.30;;;;;;4993355;28;20137;-70
2024/01/25 06:06:56;;;;;;;16.50;5.03;;;12.10;86.30;;;;;;4992814;28;20600;-70
2024/01/25 06:09:24;;;;;;;16.05;5.25;;;12.10;86.30;;;;;;4993262;28;20041;-70
2024/01/25 06:11:50;;;;;;;15.07;5.68;;;12.10;86.30;;;;;;4993349;28;20038;-70
2024/01/25 06:14:16;;;;;;;15.93;6.05;;;12.10;86.30;;;;;;4993632;28;20042;-70
2024/01/25 06:16:42;;;;;;;15.65;4.65;;;12.10;86.20;;;;;;4990208;28;20501;-70
2024/01/25 06:19:08;;;;;;;17.27;5.00;;;12.10;86.20;;;;;;5009935;28;20080;-70
2024/01/25 06:21:35;;;;;;;15.82;5.45;;;12.00;86.10;;;;;;4992643;28;20089;-70
2024/01/25 06:24:02;;;;;;;18.73;5.75;;;12.00;86.20;;;;;;4990885;28;20038;-70
2024/01/25 06:26:27;;;;;;;16.67;5.25;;;12.00;86.20;;;;;;4990293;28;20042;-70
2024/01/25 06:28:53;;;;;;;16.35;5.30;;;12.00;86.20;;;;;;4976213;28;20525;-70
2024/01/25 06:31:18;;;;;;;17.52;5.82;;;12.00;86.20;;;;;;4993402;28;20033;-70
2024/01/25 06:33:47;;;;;;;15.30;4.35;;;12.00;86.20;;;;;;4993380;28;20504;-70
2024/01/25 06:36:15;;;;;;;20.77;5.80;;;12.00;86.20;;;;;;4993232;28;20045;-70
2024/01/25 06:38:40;;;;;;;17.83;5.00;;;12.00;86.30;;;;;;5007732;28;20056;-70
2024/01/25 06:41:06;;;;;;;19.52;5.32;;;12.00;86.20;;;;;;4987702;28;20045;-70
2024/01/25 06:43:32;;;;;;;17.80;5.18;;;12.00;86.20;;;;;;4995564;28;20055;-70
2024/01/25 06:45:58;;;;;;;17.00;5.40;;;12.00;86.20;;;;;;5007019;28;20038;-70
2024/01/25 06:48:23;;;;;;;13.40;5.28;;;12.00;86.20;;;;;;5007537;28;20050;-70
2024/01/25 06:50:50;;;;;;;18.98;5.20;;;12.00;86.10;;;;;;4988227;28;20379;-70
2024/01/25 06:53:16;;;;;;;18.48;6.13;;;12.00;86.10;;;;;;4991231;28;20513;-70
2024/01/25 06:55:42;;;;;;;13.50;4.53;;;12.00;86.60;;;;;;5009295;28;20146;-70
2024/01/25 06:58:08;;;;;;;18.35;5.40;;;12.00;86.10;;;;;;4981253;28;20505;-70
2024/01/25 07:00:33;;;;;;;17.77;5.35;;;12.00;86.10;;;;;;5014237;28;20061;-70
2024/01/25 07:02:59;;;;;;;14.75;4.03;;;11.90;86.00;;;;;;4992518;28;20128;-70
2024/01/25 07:05:25;;;;;;;16.23;5.15;;;11.90;86.10;;;;;;5011603;28;20040;-70
2024/01/25 07:07:50;;;;;;;18.02;5.40;;;11.90;86.00;;;;;;4995834;28;20438;-70
2024/01/25 07:10:16;;;;;;;14.25;4.53;;;12.00;86.10;;;;;;4998909;28;20284;-69
2024/01/25 07:12:41;;;;;;;20.33;5.22;;;11.90;86.00;;;;;;4995118;28;20042;-70
2024/01/25 07:15:07;;;;;;;17.90;5.22;;;11.90;86.00;;;;;;4976188;28;20154;-69
2024/01/25 07:17:33;;;;;;;15.35;4.22;;;11.90;86.00;;;;;;5012115;28;20034;-70
2024/01/25 07:19:58;;;;;;;18.98;5.68;;;11.90;86.00;;;;;;4994985;28;20073;-70
2024/01/25 07:22:24;;;;;;;14.10;4.70;;;11.90;86.80;;;;;;4994793;28;20149;-70
2024/01/25 07:24:50;;;;;;;17.55;5.45;;;11.90;86.00;;;;;;4996250;28;20054;-71
2024/01/25 07:27:16;;;;;;;17.65;5.50;;;12.00;86.10;;;;;;4991620;28;20040;-70
2024/01/25 07:29:45;;;;;;;17.50;5.93;;;11.90;86.00;;;;;;4995482;28;20084;-70
2024/01/25 07:32:11;;;;;;;15.30;5.13;;;12.00;86.10;;;;;;4995108;28;20050;-71
2024/01/25 07:34:37;;;;;;;14.90;3.63;;;12.00;86.00;;;;;;4995838;28;20115;-70
2024/01/25 07:37:03;;;;;;;16.17;6.40;;;12.00;86.00;;;;;;5009362;28;20080;-71
2024/01/25 07:39:29;;;;;;;13.27;5.25;;;12.00;86.00;;;;;;4995225;28;20034;-71
2024/01/25 07:41:54;;;;;;;20.73;5.90;;;12.00;86.00;;;;;;4996003;28;20044;-70
2024/01/25 07:44:20;;;;;;;17.48;5.20;;;12.00;85.90;;;;;;4995862;28;20033;-72
2024/01/25 07:46:47;;;;;;;17.75;5.65;;;12.00;85.90;;;;;;4995317;28;20038;-71
2024/01/25 07:49:12;;;;;;;19.52;5.78;;;12.00;85.90;;;;;;4993127;28;20054;-71
2024/01/25 07:51:38;;;;;;;16.55;5.57;;;12.10;85.90;;;;;;4995969;28;20042;-70
2024/01/25 07:54:04;;;;;;;17.60;5.35;;;12.10;85.90;;;;;;5012046;28;20075;-71
2024/01/25 07:56:29;;;;;;;15.07;5.38;;;12.10;85.80;;;;;;4995978;28;20401;-71
2024/01/25 07:58:55;;;;;;;13.73;5.88;;;12.10;85.80;;;;;;4989494;28;20037;-71
2024/01/25 08:01:21;;;;;;;18.38;5.20;;;12.10;85.70;;;;;;4994587;28;20510;-71
2024/01/25 08:03:47;;;;;;;10.90;4.15;;;12.10;85.60;;;;;;4995677;28;20577;-71
2024/01/25 08:06:12;;;;;;;13.35;4.80;;;12.10;85.70;;;;;;4993476;28;20297;-70
2024/01/25 08:08:38;;;;;;;16.65;4.93;;;12.10;85.70;;;;;;4978092;28;20076;-70
2024/01/25 08:11:04;;;;;;;17.98;5.65;;;12.10;85.60;;;;;;5010428;28;20048;-70
2024/01/25 08:13:29;;;;;;;16.10;5.15;;;12.10;85.50;;;;;;5012218;28;20136;-70
2024/01/25 08:15:56;;;;;;;15.70;5.03;;;12.10;85.50;;;;;;4979371;28;20068;-70
2024/01/25 08:18:22;;;;;;;17.85;5.82;;;12.10;85.50;;;;;;4995228;28;20437;-70
2024/01/25 08:20:48;;;;;;;13.70;4.68;;;12.10;85.50;;;;;;5001928;28;20107;-70
2024/01/25 08:23:14;;;;;;;17.45;5.32;;;12.10;85.60;;;;;;5021361;28;20494;-70
2024/01/25 08:25:40;;;;;;;16.15;5.00;;;12.10;85.60;;;;;;4979014;28;20049;-70
2024/01/25 08:28:06;;;;;;;15.27;5.40;;;12.10;85.60;;;;;;4992253;28;20090;-70
2024/01/25 08:30:32;;;;;;;16.02;5.38;;;12.10;85.60;;;;;;4990674;28;20041;-70
2024/01/25 08:32:58;;;;;;;20.15;5.50;;;12.00;85.50;;;;;;4995474;28;20042;-70
2024/01/25 08:35:23;;;;;;;15.48;5.45;;;12.00;85.50;;;;;;5011191;28;20426;-70
2024/01/25 08:37:49;;;;;;;21.85;6.60;;;12.00;85.50;;;;;;5010306;28;20033;-70
2024/01/25 08:40:15;;;;;;;17.33;5.85;;;12.00;85.60;;;;;;5011451;28;20441;-70
2024/01/25 08:42:41;;;;;;;19.83;5.10;;;12.00;85.60;;;;;;5012251;28;20041;-70
2024/01/25 08:45:08;;;;;;;15.70;4.85;;;12.00;85.60;;;;;;5010743;28;20414;-70
2024/01/25 08:47:37;;;;;;;17.15;5.78;;;12.00;85.70;;;;;;4992499;28;20042;-70
2024/01/25 08:50:03;;;;;;;18.08;5.65;;;12.00;85.70;;;;;;5004539;28;20304;-70
2024/01/25 08:52:29;;;;;;;17.73;4.70;;;12.00;85.70;;;;;;4995597;28;20144;-70
2024/01/25 08:54:54;;;;;;;15.55;5.35;;;12.00;85.70;;;;;;4976399;28;20066;-70
2024/01/25 08:57:20;;;;;;;20.02;5.60;;;11.90;85.70;;;;;;4985843;28;20046;-70
2024/01/25 08:59:46;;;;;;;18.10;5.75;;;11.90;85.70;;;;;;4994861;28;20038;-70
2024/01/25 09:02:11;;;;;;;19.15;5.80;;;11.90;85.70;;;;;;4994146;28;20045;-70
2024/01/25 09:04:37;;;;;;;16.48;5.32;;;11.90;85.60;;;;;;4995777;28;20049;-70
2024/01/25 09:07:03;;;;;;;18.23;5.22;;;11.90;85.70;;;;;;4971065;28;20101;-69
2024/01/25 09:09:29;;;;;;;15.02;5.15;;;11.90;85.70;;;;;;4985575;28;20131;-69
2024/01/25 09:11:54;;;;;;;18.88;5.57;;;11.90;85.80;;;;;;4979408;28;20202;-70
2024/01/25 09:14:21;;;;;;;16.05;5.68;;;11.90;85.80;;;;;;4976431;28;20424;-70
2024/01/25 09:16:46;;;;;;;17.58;4.47;;;11.90;85.80;;;;;;4969789;28;20046;-70
2024/01/25 09:19:12;;;;;;;16.00;5.50;;;11.90;85.80;;;;;;4994463;28;20130;-70
2024/01/25 09:21:41;;;;;;;19.38;5.35;;;11.90;85.80;;;;;;4994337;28;20133;-70
2024/01/25 09:24:07;;;;;;;18.88;6.18;;;11.90;85.90;;;;;;4993399;28;20050;-70
2024/01/25 09:26:33;;;;;;;15.35;4.22;;;11.90;85.90;;;;;;4993680;28;20065;-70
2024/01/25 09:28:58;;;;;;;18.77;5.75;;;11.90;86.00;;;;;;4975188;28;20486;-70
2024/01/25 09:31:24;;;;;;;22.80;5.85;;;11.90;86.00;;;;;;4995309;28;20049;-70
2024/01/25 09:33:50;;;;;;;19.13;5.72;;;11.90;85.90;;;;;;4993408;28;20509;-70
2024/01/25 09:36:16;;;;;;;15.27;5.07;;;11.90;85.90;;;;;;4989145;28;20129;-70
2024/01/25 09:38:42;;;;;;;17.08;4.38;;;11.90;86.00;;;;;;4993141;28;20050;-70
2024/01/25 09:41:08;;;;;;;19.85;5.65;;;11.90;86.70;;;;;;5009105;28;20045;-70
2024/01/25 09:43:33;;;;;;;16.63;5.72;;;11.90;86.00;;;;;;4978370;28;20108;-69
2024/01/25 09:45:59;;;;;;;16.80;5.47;;;11.90;86.10;;;;;;4991136;28;20052;-70
2024/01/25 09:48:26;;;;;;;18.25;5.47;;;11.90;86.10;;;;;;4994085;28;20072;-70
2024/01/25 09:50:52;;;;;;;13.57;5.38;;;11.90;86.10;;;;;;4994799;28;20054;-70
2024/01/25 09:53:21;;;;;;;16.08;6.30;;;11.90;86.10;;;;;;4994217;28;20046;-70
2024/01/25 09:56:09;;;;;;;18.02;5.72;;;11.90;86.10;;;;;;4993719;28;20038;-70
2024/01/25 09:58:42;;;;;;;22.70;6.18;;;11.90;86.10;;;;;;4993765;28;20046;-70
2024/01/25 10:01:12;;;;;;;20.08;5.55;;;11.80;86.00;;;;;;4994049;28;20034;-70
2024/01/25 10:03:41;;;;;;;15.18;4.93;;;11.90;86.10;;;;;;4994271;28;20042;-70
2024/01/25 10:06:07;;;;;;;20.23;5.93;;;11.90;86.20;;;;;;4993082;28;20057;-70
2024/01/25 10:08:33;;;;;;;13.60;5.30;;;11.80;86.10;;;;;;4993709;28;20044;-69
2024/01/25 10:10:58;;;;;;;14.82;3.67;;;11.80;86.20;;;;;;4977593;28;20149;-69
2024/01/25 10:13:25;;;;;;;16.20;4.85;;;11.80;86.20;;;;;;4993683;28;20050;-70
2024/01/25 10:15:51;;;;;;;16.77;5.25;;;11.80;86.20;;;;;;4994019;28;20034;-70
2024/01/25 10:18:16;;;;;;;21.60;6.35;;;11.80;86.20;;;;;;4987689;28;20520;-69
2024/01/25 10:20:42;;;;;;;16.23;5.75;;;11.80;86.20;;;;;;5019528;28;20045;-70
2024/01/25 10:23:08;;;;;;;16.55;4.63;;;11.90;86.30;;;;;;4994206;28;20140;-70
2024/01/25 10:25:37;;;;;;;16.25;5.60;;;11.80;86.30;;;;;;4993496;28;20038;-70
2024/01/25 10:28:06;;;;;;;19.15;5.60;;;11.80;86.30;;;;;;4993101;28;20145;-69
2024/01/25 10:30:33;;;;;;;21.88;6.13;;;11.80;86.30;;;;;;4992069;28;20493;-69
2024/01/25 10:32:59;;;;;;;13.05;3.90;;;11.80;86.40;;;;;;4993443;28;20045;-70
2024/01/25 10:35:28;;;;;;;16.60;4.00;;;11.80;87.10;;;;;;4989867;28;20430;-69
2024/01/25 10:37:54;;;;;;;14.57;5.70;;;11.80;86.40;;;;;;5006990;28;20099;-69
2024/01/25 10:40:20;;;;;;;14.85;5.97;;;11.80;86.50;;;;;;4993367;28;20489;-69
2024/01/25 10:42:46;;;;;;;15.65;4.30;;;11.80;86.50;;;;;;4990989;28;20128;-69
2024/01/25 10:45:12;;;;;;;16.17;4.88;;;11.80;86.50;;;;;;4992896;28;20579;-69
2024/01/25 10:47:40;;;;;;;17.52;5.80;;;11.80;86.50;;;;;;4993348;28;20513;-70
2024/01/25 10:50:09;;;;;;;15.48;5.10;;;11.80;86.60;;;;;;4992706;28;20065;-70
2024/01/25 10:52:35;;;;;;;16.52;5.88;;;11.80;86.60;;;;;;4993532;28;20046;-70
2024/01/25 10:55:01;;;;;;;15.30;5.18;;;11.80;86.60;;;;;;4992646;28;20088;-70
2024/01/25 10:57:26;;;;;;;22.30;6.28;;;11.80;86.60;;;;;;4975539;28;20406;-69
2024/01/25 10:59:52;;;;;;;17.08;6.30;;;11.90;86.70;;;;;;4981332;28;20503;-69
2024/01/25 11:02:19;;;;;;;19.15;5.82;;;11.90;86.80;;;;;;4996004;28;20037;-69
2024/01/25 11:04:55;;;;;;;15.85;5.93;;;11.90;86.80;;;;;;4993204;28;20046;-70
2024/01/25 11:07:20;;;;;;;18.50;5.22;;;11.90;86.80;;;;;;4977098;28;20057;-70
2024/01/25 11:09:48;;;;;;;19.33;5.38;;;11.90;86.80;;;;;;4988717;28;20456;-69
2024/01/25 11:12:16;;;;;;;14.82;4.50;;;11.90;86.80;;;;;;4991700;28;20097;-69
2024/01/25 11:14:42;;;;;;;16.27;6.05;;;11.90;86.80;;;;;;4991873;28;20512;-69
2024/01/25 11:17:21;;;;;;;18.67;6.35;;;12.00;86.90;;;;;;4986479;28;20042;-69
2024/01/25 11:19:49;;;;;;;13.88;5.53;;;12.00;87.10;;;;;;4995695;28;20043;-69
2024/01/25 11:22:14;;;;;;;17.05;5.70;;;12.00;87.00;;;;;;4989177;28;20054;-69
2024/01/25 11:24:40;;;;;;;16.00;5.28;;;12.00;87.00;;;;;;4986846;28;20482;-69
2024/01/25 11:27:06;;;;;;;18.83;5.30;;;12.00;86.90;;;;;;5005164;28;20478;-69
2024/01/25 11:29:32;;;;;;;16.88;5.32;;;12.10;87.00;;;;;;4993327;28;20042;-69
2024/01/25 11:31:58;;;;;;;16.65;5.50;;;12.10;86.90;;;;;;4959819;28;20034;-69
2024/01/25 11:34:24;;;;;;;16.98;5.45;;;12.10;87.00;;;;;;5008701;28;20038;-69
2024/01/25 11:36:50;;;;;;;16.20;5.57;;;12.10;87.00;;;;;;5007490;28;20092;-69
2024/01/25 11:39:16;;;;;;;16.38;4.13;;;12.10;86.90;;;;;;4993214;28;20124;-69
2024/01/25 11:41:42;;;;;;;12.27;5.47;;;12.10;86.80;;;;;;4993328;28;20038;-69
2024/01/25 11:44:09;;;;;;;18.00;5.35;;;12.20;86.80;;;;;;4981090;28;20077;-69
2024/01/25 11:46:35;;;;;;;17.45;5.10;;;12.20;86.80;;;;;;4996503;28;20125;-69
2024/01/25 11:49:01;;;;;;;18.63;5.90;;;12.20;86.80;;;;;;5029921;28;20125;-69
2024/01/25 11:51:26;;;;;;;14.60;5.10;;;12.20;86.90;;;;;;4999763;28;20038;-69
2024/01/25 11:53:52;;;;;;;13.90;4.80;;;12.20;86.80;;;;;;4994869;28;20394;-69
2024/01/25 11:56:26;;;;;;;15.60;5.10;;;12.30;87.00;;;;;;4996892;28;20038;-69
2024/01/25 11:58:52;;;;;;;17.30;5.45;;;12.30;87.10;;;;;;4996262;28;20049;-69
2024/01/25 12:01:18;;;;;;;17.08;5.50;;;12.30;87.80;;;;;;4997307;28;20084;-69
2024/01/25 12:03:43;;;;;;;13.65;5.15;;;12.30;87.20;;;;;;4981214;28;20037;-69
2024/01/25 12:06:09;;;;;;;19.45;6.05;;;12.30;87.00;;;;;;4973017;28;20057;-69
2024/01/25 12:08:35;;;;;;;14.70;4.72;;;12.30;86.90;;;;;;5027372;28;20042;-69
2024/01/25 12:11:05;;;;;;;11.68;4.72;;;12.30;86.80;;;;;;4979144;28;20504;-69
2024/01/25 12:13:40;;;;;;;16.15;5.28;;;12.30;86.80;;;;;;4993918;28;20038;-69
2024/01/25 12:16:07;;;;;;;15.07;5.35;;;12.40;86.80;;;;;;4999291;28;20120;-69
2024/01/25 12:18:34;;;;;;;18.45;5.70;;;12.40;86.80;;;;;;5011463;28;20049;-69
2024/01/25 12:21:00;;;;;;;11.88;4.97;;;12.40;86.80;;;;;;4996655;28;20050;-69
2024/01/25 12:23:39;;;;;;;15.90;6.20;;;12.40;86.70;;;;;;4993710;28;20046;-69
2024/01/25 12:26:08;;;;;;;18.60;5.45;;;12.40;86.80;;;;;;5007170;28;20049;-69
2024/01/25 12:28:34;;;;;;;15.65;5.00;;;12.40;86.80;;;;;;4975752;28;20157;-69
2024/01/25 12:31:00;;;;;;;15.75;5.10;;;12.40;86.70;;;;;;4992408;28;20434;-70